createdAt,value
2018-10-04T00:00:47.582Z,6.90
2018-10-04T00:03:14.751Z,7.00
2018-10-04T00:05:41.925Z,7.00
2018-10-04T00:08:09.085Z,7.00
2018-10-04T00:10:36.569Z,7.00
2018-10-04T00:13:03.696Z,6.90
2018-10-04T00:15:30.826Z,6.90
2018-10-04T00:17:57.949Z,6.80
2018-10-04T00:20:25.053Z,6.80
2018-10-04T00:22:52.165Z,6.80
2018-10-04T00:25:19.297Z,6.80
2018-10-04T00:27:46.402Z,6.60
2018-10-04T00:30:13.537Z,6.70
2018-10-04T00:32:40.775Z,6.70
2018-10-04T00:35:08.026Z,6.70
2018-10-04T00:37:35.225Z,6.70
2018-10-04T00:40:02.378Z,6.80
2018-10-04T00:42:29.502Z,6.80
2018-10-04T00:44:56.611Z,6.70
2018-10-04T00:47:23.745Z,6.70
2018-10-04T00:49:50.861Z,6.70
2018-10-04T00:52:18.005Z,6.70
2018-10-04T00:54:45.550Z,6.70
2018-10-04T00:57:12.839Z,6.70
2018-10-04T00:59:40.145Z,6.70
2018-10-04T01:02:07.934Z,6.60
2018-10-04T01:04:35.146Z,6.60
2018-10-04T01:07:02.281Z,6.60
2018-10-04T01:09:29.410Z,6.60
2018-10-04T01:11:56.565Z,6.60
2018-10-04T01:14:23.800Z,6.60
2018-10-04T01:16:50.916Z,6.60
2018-10-04T01:19:18.065Z,6.60
2018-10-04T01:21:45.218Z,6.60
2018-10-04T01:24:12.309Z,6.60
2018-10-04T01:26:39.717Z,6.50
2018-10-04T01:29:06.914Z,6.60
2018-10-04T01:31:34.241Z,6.60
2018-10-04T01:34:01.335Z,6.50
2018-10-04T01:36:28.466Z,6.40
2018-10-04T01:38:55.585Z,6.30
2018-10-04T01:41:22.699Z,6.30
2018-10-04T01:43:49.803Z,6.30
2018-10-04T01:46:16.916Z,6.30
2018-10-04T01:48:44.028Z,6.30
2018-10-04T01:51:11.179Z,6.30
2018-10-04T01:53:38.363Z,6.30
2018-10-04T01:56:05.563Z,6.40
2018-10-04T01:58:32.686Z,6.30
2018-10-04T02:00:59.806Z,6.40
2018-10-04T02:03:26.933Z,6.40
2018-10-04T02:05:55.262Z,6.40
2018-10-04T02:08:22.367Z,6.30
2018-10-04T02:10:49.494Z,6.30
2018-10-04T02:13:16.594Z,6.30
2018-10-04T02:15:43.908Z,6.30
2018-10-04T02:18:11.092Z,6.20
2018-10-04T02:20:38.303Z,6.20
2018-10-04T02:23:05.591Z,6.20
2018-10-04T02:25:32.716Z,6.30
2018-10-04T02:28:00.039Z,6.30
2018-10-04T02:30:27.207Z,6.30
2018-10-04T02:32:54.314Z,6.30
2018-10-04T02:35:21.410Z,6.30
2018-10-04T02:37:48.536Z,6.30
2018-10-04T02:40:15.638Z,6.20
2018-10-04T02:42:42.861Z,6.20
2018-10-04T02:45:10.005Z,6.20
2018-10-04T02:47:37.237Z,6.20
2018-10-04T02:50:04.450Z,6.20
2018-10-04T02:52:31.559Z,6.20
2018-10-04T02:55:04.406Z,6.20
2018-10-04T02:57:31.531Z,6.20
2018-10-04T02:59:58.614Z,6.20
2018-10-04T03:02:25.739Z,6.20
2018-10-04T03:04:52.866Z,6.20
2018-10-04T03:07:19.960Z,6.10
2018-10-04T03:09:47.074Z,6.10
2018-10-04T03:12:14.204Z,6.10
2018-10-04T03:14:41.406Z,6.10
2018-10-04T03:17:08.858Z,6.10
2018-10-04T03:19:35.967Z,6.10
2018-10-04T03:22:03.087Z,6.10
2018-10-04T03:24:30.219Z,6.10
2018-10-04T03:26:57.323Z,6.10
2018-10-04T03:29:24.432Z,6.20
2018-10-04T03:31:51.554Z,6.20
2018-10-04T03:34:18.663Z,6.20
2018-10-04T03:36:45.854Z,6.10
2018-10-04T03:39:13.047Z,6.00
2018-10-04T03:41:40.185Z,6.00
2018-10-04T03:44:07.358Z,6.00
2018-10-04T03:46:34.484Z,5.90
2018-10-04T03:49:01.591Z,5.90
2018-10-04T03:51:28.758Z,5.90
2018-10-04T03:53:55.858Z,5.80
2018-10-04T03:56:22.963Z,5.80
2018-10-04T03:58:50.051Z,5.80
2018-10-04T04:01:17.172Z,5.80
2018-10-04T04:03:44.352Z,5.80
2018-10-04T04:06:11.555Z,5.80
2018-10-04T04:08:38.740Z,5.80
2018-10-04T04:11:05.869Z,5.80
2018-10-04T04:13:32.999Z,5.90
2018-10-04T04:16:00.092Z,5.90
2018-10-04T04:18:27.291Z,5.90
2018-10-04T04:20:54.395Z,5.90
2018-10-04T04:23:21.511Z,5.80
2018-10-04T04:25:48.664Z,5.90
2018-10-04T04:28:15.795Z,5.90
2018-10-04T04:30:43.043Z,5.90
2018-10-04T04:33:10.162Z,5.80
2018-10-04T04:35:37.337Z,5.90
2018-10-04T04:38:05.001Z,5.90
2018-10-04T04:40:32.386Z,5.90
2018-10-04T04:42:59.528Z,5.90
2018-10-04T04:45:26.643Z,5.90
2018-10-04T04:47:53.745Z,5.90
2018-10-04T04:50:20.859Z,5.90
2018-10-04T04:52:48.001Z,5.90
2018-10-04T04:55:20.106Z,5.80
2018-10-04T04:57:47.963Z,5.80
2018-10-04T05:00:15.087Z,5.80
2018-10-04T05:02:42.496Z,5.80
2018-10-04T05:05:09.761Z,5.80
2018-10-04T05:07:36.891Z,5.80
2018-10-04T05:10:04.031Z,5.90
2018-10-04T05:12:31.144Z,5.90
2018-10-04T05:14:58.270Z,6.00
2018-10-04T05:17:25.665Z,6.10
2018-10-04T05:19:52.795Z,6.10
2018-10-04T05:22:19.914Z,6.20
2018-10-04T05:24:47.027Z,6.20
2018-10-04T05:27:14.335Z,6.10
2018-10-04T05:29:41.544Z,5.90
2018-10-04T05:32:09.067Z,5.90
2018-10-04T05:34:36.203Z,5.80
2018-10-04T05:37:03.356Z,5.90
2018-10-04T05:39:30.440Z,5.80
2018-10-04T05:41:57.563Z,5.80
2018-10-04T05:44:31.310Z,5.80
2018-10-04T05:46:58.424Z,5.80
2018-10-04T05:49:25.544Z,5.90
2018-10-04T05:51:52.924Z,6.00
2018-10-04T05:54:20.055Z,6.00
2018-10-04T05:56:47.177Z,6.10
2018-10-04T05:59:14.443Z,6.20
2018-10-04T06:01:41.823Z,6.30
2018-10-04T06:04:09.038Z,6.30
2018-10-04T06:06:36.164Z,6.40
2018-10-04T06:09:03.797Z,6.50
2018-10-04T06:11:30.899Z,6.70
2018-10-04T06:13:58.011Z,6.80
2018-10-04T06:16:25.132Z,7.00
2018-10-04T06:18:52.269Z,7.10
2018-10-04T06:21:19.439Z,7.30
2018-10-04T06:23:46.567Z,7.40
2018-10-04T06:26:13.762Z,7.40
2018-10-04T06:28:41.030Z,7.60
2018-10-04T06:31:08.247Z,7.70
2018-10-04T06:33:35.361Z,8.00
2018-10-04T06:36:02.878Z,9.10
2018-10-04T06:38:30.039Z,10.20
2018-10-04T06:40:57.211Z,10.30
2018-10-04T06:43:24.367Z,10.60
2018-10-04T06:45:51.482Z,10.70
2018-10-04T06:48:18.588Z,10.80
2018-10-04T06:50:45.703Z,11.10
2018-10-04T06:53:12.874Z,11.80
2018-10-04T06:55:40.079Z,14.20
2018-10-04T06:58:07.265Z,15.60
2018-10-04T07:00:34.348Z,16.80
2018-10-04T07:03:01.477Z,17.60
2018-10-04T07:05:28.621Z,18.30
2018-10-04T07:07:55.743Z,19.40
2018-10-04T07:10:22.843Z,19.70
2018-10-04T07:12:50.250Z,19.60
2018-10-04T07:15:17.387Z,20.00
2018-10-04T07:17:44.580Z,20.60
2018-10-04T07:20:11.841Z,20.70
2018-10-04T07:22:38.961Z,21.10
2018-10-04T07:25:06.135Z,21.20
2018-10-04T07:27:33.253Z,21.20
2018-10-04T07:30:00.399Z,21.80
2018-10-04T07:32:28.344Z,22.10
2018-10-04T07:34:55.531Z,22.60
2018-10-04T07:37:22.641Z,22.40
2018-10-04T07:39:49.723Z,22.50
2018-10-04T07:42:16.942Z,22.80
2018-10-04T07:44:44.022Z,23.30
2018-10-04T07:47:11.184Z,23.60
2018-10-04T07:49:38.539Z,23.60
2018-10-04T07:52:05.676Z,23.40
2018-10-04T07:54:32.790Z,23.00
2018-10-04T07:56:59.922Z,23.10
2018-10-04T07:59:27.079Z,23.40
2018-10-04T08:01:54.179Z,23.80
2018-10-04T08:04:21.326Z,23.80
2018-10-04T08:06:48.513Z,22.80
2018-10-04T08:09:15.639Z,23.10
2018-10-04T08:11:42.805Z,23.50
2018-10-04T08:14:10.532Z,23.60
2018-10-04T08:16:37.699Z,23.20
2018-10-04T08:19:04.830Z,22.10
2018-10-04T08:21:31.946Z,22.30
2018-10-04T08:23:59.037Z,22.40
2018-10-04T08:26:26.203Z,22.00
2018-10-04T08:28:53.347Z,21.30
2018-10-04T08:31:20.488Z,20.90
2018-10-04T08:33:47.747Z,20.20
2018-10-04T08:36:14.913Z,19.50
2018-10-04T08:38:42.087Z,18.60
2018-10-04T08:41:09.300Z,18.00
2018-10-04T08:43:36.402Z,17.50
2018-10-04T08:46:03.527Z,17.10
2018-10-04T08:48:30.627Z,16.70
2018-10-04T08:50:57.731Z,16.50
2018-10-04T08:53:24.826Z,16.20
2018-10-04T08:55:51.943Z,16.00
2018-10-04T08:58:19.076Z,15.80
2018-10-04T09:00:46.185Z,15.40
2018-10-04T09:03:13.630Z,14.90
2018-10-04T09:05:40.840Z,14.90
2018-10-04T09:08:08.494Z,14.90
2018-10-04T09:10:35.595Z,14.80
2018-10-04T09:13:02.717Z,14.90
2018-10-04T09:15:48.802Z,14.90
2018-10-04T09:18:16.099Z,14.70
2018-10-04T09:20:43.440Z,14.70
2018-10-04T09:23:10.583Z,14.70
2018-10-04T09:25:37.735Z,14.70
2018-10-04T09:28:09.505Z,14.70
2018-10-04T09:30:42.373Z,14.60
2018-10-04T09:33:09.631Z,14.70
2018-10-04T09:35:36.811Z,14.60
2018-10-04T09:38:03.935Z,14.60
2018-10-04T09:40:31.047Z,14.70
2018-10-04T09:42:58.159Z,14.70
2018-10-04T09:45:25.279Z,14.70
2018-10-04T09:47:56.635Z,14.60
2018-10-04T09:50:28.382Z,14.60
2018-10-04T09:52:55.803Z,14.60
2018-10-04T09:55:22.936Z,14.60
2018-10-04T09:57:50.139Z,14.70
2018-10-04T10:00:23.035Z,14.70
2018-10-04T10:02:59.744Z,14.60
2018-10-04T10:05:26.957Z,14.70
2018-10-04T10:07:54.015Z,14.90
2018-10-04T10:10:21.248Z,14.90
2018-10-04T10:12:48.527Z,14.80
2018-10-04T10:15:15.789Z,14.80
2018-10-04T10:17:43.163Z,14.80
2018-10-04T10:20:10.995Z,14.90
2018-10-04T10:22:38.119Z,15.00
2018-10-04T10:25:05.267Z,15.00
2018-10-04T10:27:32.679Z,15.10
2018-10-04T10:29:59.819Z,15.10
2018-10-04T10:32:27.320Z,15.10
2018-10-04T10:34:54.451Z,15.10
2018-10-04T10:37:21.684Z,15.20
2018-10-04T10:39:48.944Z,15.30
2018-10-04T10:42:16.147Z,15.30
2018-10-04T10:44:43.330Z,15.30
2018-10-04T10:47:10.463Z,15.30
2018-10-04T10:49:37.775Z,15.20
2018-10-04T10:52:05.037Z,15.10
2018-10-04T10:54:32.172Z,15.10
2018-10-04T10:56:59.290Z,15.20
2018-10-04T10:59:26.395Z,15.20
2018-10-04T11:01:53.790Z,15.30
2018-10-04T11:04:20.943Z,15.30
2018-10-04T11:06:48.092Z,15.30
2018-10-04T11:09:15.271Z,15.30
2018-10-04T11:11:42.445Z,15.20
2018-10-04T11:14:10.052Z,15.30
2018-10-04T11:16:37.158Z,15.30
2018-10-04T11:19:04.651Z,15.20
2018-10-04T11:21:31.802Z,15.30
2018-10-04T11:23:58.910Z,15.40
2018-10-04T11:26:26.102Z,15.50
2018-10-04T11:28:53.216Z,15.60
2018-10-04T11:31:20.347Z,15.70
2018-10-04T11:33:47.499Z,15.70
2018-10-04T11:36:14.751Z,15.60
2018-10-04T11:38:41.910Z,15.60
2018-10-04T11:41:09.031Z,15.70
2018-10-04T11:43:36.326Z,15.60
2018-10-04T11:46:04.390Z,15.70
2018-10-04T11:48:33.526Z,15.80
2018-10-04T11:51:00.687Z,15.80
2018-10-04T11:53:27.797Z,15.90
2018-10-04T11:55:54.955Z,15.80
2018-10-04T11:58:22.111Z,15.70
2018-10-04T12:00:49.299Z,15.60
2018-10-04T12:03:16.537Z,15.60
2018-10-04T12:05:43.766Z,15.70
2018-10-04T12:08:10.892Z,15.70
2018-10-04T12:10:38.007Z,15.70
2018-10-04T12:13:05.222Z,15.70
2018-10-04T12:15:32.490Z,15.70
2018-10-04T12:17:59.619Z,15.70
2018-10-04T12:20:26.755Z,15.80
2018-10-04T12:22:53.891Z,15.90
2018-10-04T12:25:21.111Z,16.00
2018-10-04T12:27:49.048Z,16.10
2018-10-04T12:30:16.273Z,16.20
2018-10-04T12:32:43.470Z,16.20
2018-10-04T12:35:10.573Z,16.00
2018-10-04T12:37:37.704Z,15.90
2018-10-04T12:40:04.823Z,16.00
2018-10-04T12:42:31.943Z,16.10
2018-10-04T12:44:59.039Z,16.00
2018-10-04T12:47:26.131Z,16.10
2018-10-04T12:49:53.269Z,16.10
2018-10-04T12:52:20.541Z,16.20
2018-10-04T12:54:47.652Z,16.10
2018-10-04T12:57:19.433Z,16.20
2018-10-04T12:59:46.851Z,16.30
2018-10-04T13:02:14.029Z,16.20
2018-10-04T13:04:41.179Z,16.10
2018-10-04T13:07:08.525Z,16.10
2018-10-04T13:09:35.473Z,16.10
2018-10-04T13:12:02.590Z,16.10
2018-10-04T13:14:29.687Z,16.30
2018-10-04T13:16:56.826Z,16.20
2018-10-04T13:19:23.939Z,16.10
2018-10-04T13:21:51.083Z,16.00
2018-10-04T13:24:18.294Z,15.90
2018-10-04T13:26:45.499Z,15.90
2018-10-04T13:29:12.656Z,16.00
2018-10-04T13:31:39.793Z,16.30
2018-10-04T13:34:06.950Z,16.40
2018-10-04T13:36:34.068Z,16.40
2018-10-04T13:39:01.223Z,16.40
2018-10-04T13:41:28.353Z,16.20
2018-10-04T13:43:55.483Z,16.10
2018-10-04T13:46:22.595Z,16.10
2018-10-04T13:48:49.755Z,16.30
2018-10-04T13:51:17.082Z,16.30
2018-10-04T13:53:44.294Z,16.10
2018-10-04T13:56:11.419Z,16.10
2018-10-04T13:58:38.503Z,16.20
2018-10-04T14:01:05.624Z,16.40
2018-10-04T14:03:32.755Z,16.30
2018-10-04T14:05:59.969Z,16.30
2018-10-04T14:08:26.990Z,16.40
2018-10-04T14:10:54.150Z,16.40
2018-10-04T14:13:21.359Z,16.30
2018-10-04T14:15:48.625Z,16.20
2018-10-04T14:18:15.929Z,16.20
2018-10-04T14:20:43.982Z,16.30
2018-10-04T14:23:11.095Z,16.30
2018-10-04T14:25:38.231Z,16.40
2018-10-04T14:28:05.391Z,16.30
2018-10-04T14:30:32.511Z,16.30
2018-10-04T14:32:59.611Z,16.20
2018-10-04T14:35:26.719Z,16.30
2018-10-04T14:37:53.826Z,16.30
2018-10-04T14:40:20.955Z,16.30
2018-10-04T14:42:48.167Z,16.40
2018-10-04T14:45:15.711Z,16.30
2018-10-04T14:47:42.881Z,16.20
2018-10-04T14:50:10.044Z,16.30
2018-10-04T14:52:37.186Z,16.30
2018-10-04T14:55:04.361Z,16.30
2018-10-04T14:57:31.519Z,16.30
2018-10-04T14:59:58.664Z,16.30
2018-10-04T15:02:25.822Z,16.20
2018-10-04T15:04:53.010Z,16.00
2018-10-04T15:07:20.487Z,16.00
2018-10-04T15:09:47.684Z,16.10
2018-10-04T15:12:14.855Z,16.20
2018-10-04T15:14:41.987Z,16.20
2018-10-04T15:17:09.148Z,16.10
2018-10-04T15:19:36.318Z,16.10
2018-10-04T15:22:03.572Z,16.10
2018-10-04T15:24:30.721Z,16.20
2018-10-04T15:26:57.978Z,16.10
2018-10-04T15:29:25.286Z,16.00
2018-10-04T15:31:52.557Z,16.00
2018-10-04T15:34:19.960Z,16.00
2018-10-04T15:36:47.239Z,16.10
2018-10-04T15:39:14.472Z,16.10
2018-10-04T15:41:41.591Z,16.00
2018-10-04T15:44:08.748Z,15.80
2018-10-04T15:46:35.991Z,15.70
2018-10-04T15:49:03.142Z,15.60
2018-10-04T15:51:30.311Z,15.80
2018-10-04T15:53:57.442Z,15.60
2018-10-04T15:56:24.783Z,15.40
2018-10-04T15:58:51.961Z,15.30
2018-10-04T16:01:19.204Z,15.20
2018-10-04T16:03:46.455Z,15.20
2018-10-04T16:06:13.604Z,15.10
2018-10-04T16:08:40.736Z,15.30
2018-10-04T16:11:07.879Z,15.20
2018-10-04T16:13:35.090Z,15.20
2018-10-04T16:16:02.175Z,15.40
2018-10-04T16:18:29.263Z,15.40
2018-10-04T16:20:56.390Z,15.20
2018-10-04T16:23:23.523Z,15.30
2018-10-04T16:25:50.756Z,15.20
2018-10-04T16:28:17.948Z,15.10
2018-10-04T16:30:45.199Z,15.00
2018-10-04T16:33:12.355Z,14.80
2018-10-04T16:35:39.511Z,14.70
2018-10-04T16:38:06.729Z,14.70
2018-10-04T16:40:33.852Z,14.50
2018-10-04T16:43:00.977Z,14.40
2018-10-04T16:45:28.115Z,14.20
2018-10-04T16:47:55.230Z,14.10
2018-10-04T16:50:22.419Z,13.90
2018-10-04T16:52:49.621Z,13.90
2018-10-04T16:55:16.920Z,13.70
2018-10-04T16:57:44.538Z,13.60
2018-10-04T17:00:11.691Z,13.50
2018-10-04T17:02:38.836Z,13.50
2018-10-04T17:05:05.983Z,13.30
2018-10-04T17:07:33.136Z,13.20
2018-10-04T17:10:00.268Z,13.10
2018-10-04T17:12:27.434Z,13.00
2018-10-04T17:14:54.748Z,12.90
2018-10-04T17:17:22.103Z,12.80
2018-10-04T17:19:49.344Z,12.70
2018-10-04T17:22:16.641Z,12.70
2018-10-04T17:24:43.845Z,12.50
2018-10-04T17:27:11.003Z,12.50
2018-10-04T17:29:38.267Z,12.40
2018-10-04T17:32:05.307Z,12.50
2018-10-04T17:34:32.465Z,12.40
2018-10-04T17:36:59.612Z,12.40
2018-10-04T17:39:26.987Z,12.30
2018-10-04T17:41:54.121Z,12.30
2018-10-04T17:44:21.275Z,12.10
2018-10-04T17:46:48.515Z,12.10
2018-10-04T17:49:15.716Z,12.10
2018-10-04T17:51:43.527Z,12.00
2018-10-04T17:54:10.740Z,11.80
2018-10-04T17:56:37.819Z,11.70
2018-10-04T17:59:04.975Z,11.50
2018-10-04T18:01:32.106Z,11.40
2018-10-04T18:03:59.231Z,11.30
2018-10-04T18:06:26.349Z,11.20
2018-10-04T18:08:53.470Z,11.10
2018-10-04T18:11:21.175Z,11.10
2018-10-04T18:13:48.415Z,11.30
2018-10-04T18:16:15.756Z,11.30
2018-10-04T18:18:43.076Z,11.20
2018-10-04T18:21:10.218Z,11.10
2018-10-04T18:23:37.339Z,11.00
2018-10-04T18:26:04.493Z,10.90
2018-10-04T18:28:31.872Z,10.90
2018-10-04T18:30:59.084Z,10.90
2018-10-04T18:33:26.220Z,10.80
2018-10-04T18:35:53.383Z,10.80
2018-10-04T18:38:20.499Z,10.70
2018-10-04T18:40:47.636Z,10.70
2018-10-04T18:43:14.766Z,10.60
2018-10-04T18:45:41.970Z,10.60
2018-10-04T18:48:09.079Z,10.60
2018-10-04T18:50:36.207Z,10.60
2018-10-04T18:53:03.374Z,10.50
2018-10-04T18:55:30.959Z,10.40
2018-10-04T18:57:58.147Z,10.50
2018-10-04T19:00:25.402Z,10.40
2018-10-04T19:02:52.599Z,10.50
2018-10-04T19:05:19.906Z,10.60
2018-10-04T19:07:47.092Z,10.70
2018-10-04T19:10:14.316Z,10.70
2018-10-04T19:12:41.508Z,10.70
2018-10-04T19:15:08.753Z,10.60
2018-10-04T19:17:35.921Z,10.50
2018-10-04T19:20:03.319Z,10.50
2018-10-04T19:22:30.611Z,10.60
2018-10-04T19:24:57.819Z,10.40
2018-10-04T19:27:25.016Z,10.40
2018-10-04T19:29:52.195Z,10.40
2018-10-04T19:32:19.426Z,10.40
2018-10-04T19:34:46.722Z,10.40
2018-10-04T19:37:13.930Z,10.40
2018-10-04T19:39:41.150Z,10.50
2018-10-04T19:42:09.367Z,10.50
2018-10-04T19:44:36.655Z,10.30
2018-10-04T19:47:04.300Z,10.30
2018-10-04T19:49:34.812Z,10.40
2018-10-04T19:52:02.150Z,10.30
2018-10-04T19:57:03.321Z,10.30
2018-10-04T19:59:34.785Z,10.50
2018-10-04T20:02:07.227Z,10.50
2018-10-04T20:04:37.350Z,10.60
2018-10-04T20:07:04.760Z,10.40
2018-10-04T20:09:34.493Z,10.40
2018-10-04T20:12:02.051Z,10.20
2018-10-04T20:14:29.237Z,10.10
2018-10-04T20:16:56.476Z,10.10
2018-10-04T20:19:23.649Z,10.00
2018-10-04T20:21:50.951Z,10.00
2018-10-04T20:24:18.144Z,9.90
2018-10-04T20:26:45.303Z,9.90
2018-10-04T20:29:12.548Z,9.90
2018-10-04T20:31:39.825Z,9.80
2018-10-04T20:34:07.119Z,9.80
2018-10-04T20:36:34.434Z,9.80
2018-10-04T20:39:01.671Z,9.80
2018-10-04T20:41:28.896Z,9.80
2018-10-04T20:43:56.124Z,9.70
2018-10-04T20:46:23.211Z,9.70
2018-10-04T20:48:50.356Z,9.70
2018-10-04T20:51:17.564Z,9.80
2018-10-04T20:53:44.738Z,9.90
2018-10-04T20:56:11.899Z,9.90
2018-10-04T20:58:39.084Z,9.90
2018-10-04T21:01:06.532Z,9.90
2018-10-04T21:03:33.774Z,9.80
2018-10-04T21:06:00.993Z,9.70
2018-10-04T21:08:28.139Z,9.70
2018-10-04T21:10:55.348Z,9.80
2018-10-04T21:13:22.491Z,9.90
2018-10-04T21:15:49.626Z,9.80
2018-10-04T21:18:16.775Z,9.80
2018-10-04T21:20:44.042Z,9.60
2018-10-04T21:23:11.334Z,9.60
2018-10-04T21:25:38.379Z,9.60
2018-10-04T21:28:05.603Z,9.60
2018-10-04T21:30:32.746Z,9.40
2018-10-04T21:32:59.875Z,9.50
2018-10-04T21:35:27.038Z,9.50
2018-10-04T21:37:54.383Z,9.40
2018-10-04T21:40:21.534Z,9.40
2018-10-04T21:42:48.695Z,9.30
2018-10-04T21:45:15.977Z,9.30
2018-10-04T21:47:43.050Z,9.30
2018-10-04T21:50:10.219Z,9.30
2018-10-04T21:52:37.450Z,9.30
2018-10-04T21:55:04.599Z,9.20
2018-10-04T21:57:31.748Z,9.20
2018-10-04T21:59:59.012Z,9.20
2018-10-04T22:02:26.176Z,9.20
2018-10-04T22:04:53.395Z,9.20
2018-10-04T22:07:20.542Z,9.20
2018-10-04T22:09:47.704Z,9.20
2018-10-04T22:12:14.822Z,9.20
2018-10-04T22:14:41.965Z,9.10
2018-10-04T22:17:09.110Z,9.10
2018-10-04T22:19:36.269Z,9.00
2018-10-04T22:22:03.402Z,9.10
2018-10-04T22:24:30.635Z,9.10
2018-10-04T22:26:57.767Z,9.00
2018-10-04T22:29:24.877Z,9.00
2018-10-04T22:31:52.010Z,9.00
2018-10-04T22:34:19.136Z,8.90
2018-10-04T22:36:46.250Z,8.90
2018-10-04T22:39:13.570Z,8.80
2018-10-04T22:41:40.730Z,8.80
2018-10-04T22:44:07.935Z,8.80
2018-10-04T22:46:35.296Z,8.80
2018-10-04T22:49:02.475Z,8.90
2018-10-04T22:51:29.607Z,9.00
2018-10-04T22:53:56.734Z,8.80
2018-10-04T22:56:23.846Z,8.90
2018-10-04T22:58:51.031Z,8.80
2018-10-04T23:01:18.145Z,8.80
2018-10-04T23:03:45.252Z,8.80
2018-10-04T23:06:12.378Z,8.70
2018-10-04T23:08:39.518Z,8.70
2018-10-04T23:11:06.715Z,8.70
2018-10-04T23:13:33.856Z,8.70
2018-10-04T23:16:01.010Z,8.70
2018-10-04T23:18:28.131Z,8.70
2018-10-04T23:20:55.248Z,8.70
2018-10-04T23:23:22.367Z,8.60
2018-10-04T23:25:49.494Z,8.60
2018-10-04T23:28:16.603Z,8.60
2018-10-04T23:30:43.741Z,8.60
2018-10-04T23:33:10.926Z,8.60
2018-10-04T23:35:38.110Z,8.50
2018-10-04T23:38:05.977Z,8.50
2018-10-04T23:40:33.170Z,8.60
2018-10-04T23:43:00.290Z,8.70
2018-10-04T23:45:27.455Z,8.80
2018-10-04T23:47:54.609Z,8.80
2018-10-04T23:50:21.743Z,8.70
2018-10-04T23:52:48.887Z,8.60
2018-10-04T23:55:16.028Z,8.60
2018-10-04T23:57:43.150Z,8.60
